Accueil
METAR-TAF:

METAR-TAF

Aéroports :

Aéroport de Vérone

Vérone, Italie

latitude: 45-23N, longitude: 010-52E, altitude: 67 m

Observation

Le bulletin a été fait il y a 39 minutes, à 00:50 UTC
Vent 8 kt de nord-est, variant entre nord/nord-est et est
Température 20°C
Humidité 53%
Pression 1016 hPa
Visibilité 10 km ou plus
Nuages épars à une hauteur de 7000 ft

METAR: LIPX 210050Z 04008KT 020V080 9999 SCT070 20/10 Q1016

Heure: 03:29 (01:29 UTC)

Prévision

Le bulletin a été fait il y a 2 heures et 29 minutes, à 23:00 UTC
Prévision valable du 21 à 00 UTC au 21 à 09 UTC
Vent 10 kt de est
Visibilité 10 km ou plus
Nuages épars à une hauteur de 5000 ft

TAF: LIPX 202300Z 2100/2109 09010KT 9999 SCT050

Observations et prévisions météorologiques de plus de 4000 aéroports (messages METAR et TAF).

Les stations disponibles sont représentées par des disques jaunes et rouges sur la carte.

Passer la souris dessus pour voir le nom de la station.

Cliquer dessus pour voir les observations et prévisions météorologiques.

Pour changer de carte: cliquez sur les boutons verts avec une croix noire pour zoomer, sur le bouton vert avec un tiret pour effectuer un zoom arrière, ou sur les flèches vertes pour les cartes adjacentes.


METAR-TAF: